Time;durP1;ratioP1;P1;durP2;ratioP2;P2;SDS_P1;SDS_P2;PMS_P1;PMS_P2;Temp;Humidity;BMP_temperature;BMP_pressure;BME280_temperature;BME280_humidity;BME280_pressure;Samples;Min_cycle;Max_cycle;Signal;HPM_P1;HPM_P2
2024/03/03 00:01:54;;;;;;;5.93;5.18;;;15.60;71.40;;;;;;4189723;28;20087;-50
2024/03/03 00:04:35;;;;;;;6.70;5.30;;;15.60;71.30;;;;;;4189986;28;20409;-49
2024/03/03 00:07:16;;;;;;;6.82;5.18;;;15.60;71.50;;;;;;4190438;28;20121;-48
2024/03/03 00:09:57;;;;;;;7.68;5.22;;;15.60;71.60;;;;;;4204465;28;20400;-45
2024/03/03 00:12:38;;;;;;;7.45;5.07;;;15.60;71.60;;;;;;4202058;28;20232;-50
2024/03/03 00:15:21;;;;;;;7.22;5.20;;;15.60;71.50;;;;;;4206475;28;20055;-46
2024/03/03 00:18:02;;;;;;;6.97;5.60;;;15.60;72.30;;;;;;4191420;28;20059;-48
2024/03/03 00:20:43;;;;;;;10.80;5.55;;;15.60;71.30;;;;;;4201522;28;20565;-51
2024/03/03 00:23:24;;;;;;;6.90;5.43;;;15.60;71.20;;;;;;4231045;27;20058;-46
2024/03/03 00:26:05;;;;;;;7.38;5.78;;;15.60;71.20;;;;;;4238497;27;20518;-49
2024/03/03 00:28:46;;;;;;;6.72;5.63;;;15.50;71.00;;;;;;4189149;28;20063;-50
2024/03/03 00:31:28;;;;;;;6.55;5.70;;;15.50;71.10;;;;;;4212072;28;20063;-49
2024/03/03 00:34:09;;;;;;;9.23;6.10;;;15.50;71.20;;;;;;4199048;28;20051;-48
2024/03/03 00:36:50;;;;;;;6.80;6.05;;;15.50;71.40;;;;;;4204362;28;20055;-45
2024/03/03 00:39:31;;;;;;;8.23;6.68;;;15.50;71.80;;;;;;4204957;28;20557;-49
2024/03/03 00:42:12;;;;;;;7.38;5.82;;;15.50;71.90;;;;;;4220957;28;20176;-44
2024/03/03 00:44:53;;;;;;;10.15;6.88;;;15.50;72.10;;;;;;4212992;27;20054;-48
2024/03/03 00:47:35;;;;;;;8.00;6.17;;;15.50;73.00;;;;;;4199083;28;20132;-48
2024/03/03 00:50:16;;;;;;;7.13;6.18;;;15.50;72.10;;;;;;4206088;27;20047;-43
2024/03/03 00:52:57;;;;;;;7.45;5.93;;;15.50;72.10;;;;;;4207619;27;20853;-45
2024/03/03 00:55:38;;;;;;;8.90;6.53;;;15.50;71.90;;;;;;4203340;28;20185;-49
2024/03/03 00:58:20;;;;;;;8.07;6.38;;;15.50;71.90;;;;;;4203381;28;20129;-52
2024/03/03 01:01:01;;;;;;;8.93;5.72;;;15.50;72.40;;;;;;4211281;27;20047;-52
2024/03/03 01:03:43;;;;;;;9.15;6.82;;;15.50;71.80;;;;;;4204255;28;20059;-52
2024/03/03 01:06:25;;;;;;;9.57;6.30;;;15.50;71.70;;;;;;4221217;27;20499;-49
2024/03/03 01:09:06;;;;;;;10.05;6.85;;;15.40;71.50;;;;;;4211963;27;20051;-46
2024/03/03 01:11:47;;;;;;;8.57;6.35;;;15.40;71.20;;;;;;4211209;27;20079;-44
2024/03/03 01:14:28;;;;;;;8.00;6.85;;;15.40;71.20;;;;;;4209835;27;20058;-46
2024/03/03 01:17:09;;;;;;;8.07;5.97;;;15.40;71.30;;;;;;4221043;27;20046;-45
2024/03/03 01:19:52;;;;;;;7.95;6.63;;;15.40;71.40;;;;;;4215763;27;20605;-46
2024/03/03 01:22:33;;;;;;;10.13;6.72;;;15.40;71.80;;;;;;4220966;27;20059;-49
2024/03/03 01:25:14;;;;;;;11.75;7.20;;;15.40;72.30;;;;;;4220933;27;20047;-51
2024/03/03 01:27:55;;;;;;;9.45;6.57;;;15.40;72.50;;;;;;4221211;28;20051;-48
2024/03/03 01:30:37;;;;;;;7.40;5.80;;;15.40;72.70;;;;;;4194626;28;20047;-48
2024/03/03 01:33:18;;;;;;;8.75;7.05;;;15.40;72.90;;;;;;4204333;28;20050;-48
2024/03/03 01:36:00;;;;;;;11.77;7.57;;;15.40;73.10;;;;;;4217952;28;20503;-51
2024/03/03 01:38:42;;;;;;;8.77;6.55;;;15.40;73.20;;;;;;4219974;28;20046;-45
2024/03/03 01:41:23;;;;;;;8.82;6.82;;;15.40;73.10;;;;;;4194707;28;20051;-48
2024/03/03 01:44:03;;;;;;;8.83;7.10;;;15.30;72.80;;;;;;4193144;28;20186;-51
2024/03/03 01:46:45;;;;;;;8.48;6.95;;;15.40;72.60;;;;;;4203521;28;20308;-51
2024/03/03 01:49:26;;;;;;;9.73;6.70;;;15.30;72.40;;;;;;4204597;28;20051;-51
2024/03/03 01:52:11;;;;;;;7.55;6.53;;;15.30;72.40;;;;;;4200742;28;20519;-49
2024/03/03 01:54:53;;;;;;;8.50;6.65;;;15.30;72.70;;;;;;4212081;28;20049;-44
2024/03/03 01:57:33;;;;;;;8.88;6.28;;;15.30;72.80;;;;;;4219701;28;20822;-44
2024/03/03 02:00:15;;;;;;;7.28;6.50;;;15.30;72.90;;;;;;4236856;27;20050;-46
2024/03/03 02:02:57;;;;;;;9.35;7.07;;;15.30;73.00;;;;;;4238274;27;20050;-45
2024/03/03 02:05:39;;;;;;;11.10;6.95;;;15.30;72.80;;;;;;4208999;27;20047;-48
2024/03/03 02:08:23;;;;;;;8.60;6.35;;;15.30;72.70;;;;;;4187069;28;20138;-44
2024/03/03 02:11:06;;;;;;;7.60;6.28;;;15.30;72.70;;;;;;4194281;28;20144;-47
2024/03/03 02:13:47;;;;;;;9.00;7.40;;;15.30;73.10;;;;;;4198998;27;20488;-51
2024/03/03 02:16:28;;;;;;;8.52;6.43;;;15.30;73.10;;;;;;4186288;28;20405;-45
2024/03/03 02:19:09;;;;;;;9.98;6.28;;;15.30;73.00;;;;;;4219783;28;20140;-45
2024/03/03 02:21:51;;;;;;;7.88;6.40;;;15.30;73.00;;;;;;4218999;28;20119;-45
2024/03/03 02:24:32;;;;;;;8.70;6.50;;;15.30;73.10;;;;;;4202403;28;20054;-48
2024/03/03 02:27:13;;;;;;;9.50;6.65;;;15.30;73.20;;;;;;4208340;27;20063;-51
2024/03/03 02:29:55;;;;;;;8.60;6.70;;;15.30;73.30;;;;;;4211770;27;20055;-47
2024/03/03 02:32:36;;;;;;;10.88;6.65;;;15.30;73.50;;;;;;4192377;28;20047;-49
2024/03/03 02:35:17;;;;;;;7.80;6.32;;;15.20;73.60;;;;;;4189186;28;20055;-48
2024/03/03 02:37:59;;;;;;;7.55;6.38;;;15.20;73.70;;;;;;4207273;28;20051;-48
2024/03/03 02:40:40;;;;;;;9.10;6.50;;;15.30;73.70;;;;;;4200980;28;20051;-46
2024/03/03 02:43:21;;;;;;;7.55;5.78;;;15.20;73.70;;;;;;4201141;28;20121;-46
2024/03/03 02:46:02;;;;;;;7.90;6.07;;;15.20;73.70;;;;;;4198779;28;20565;-47
2024/03/03 02:48:43;;;;;;;7.50;5.88;;;15.20;73.40;;;;;;4209811;27;20134;-49
2024/03/03 02:51:26;;;;;;;7.32;5.80;;;15.20;72.00;;;;;;4195209;28;20051;-50
2024/03/03 02:54:08;;;;;;;9.13;6.85;;;15.20;70.20;;;;;;4203438;28;20054;-45
2024/03/03 02:56:50;;;;;;;8.18;5.93;;;15.20;70.50;;;;;;4206402;28;20120;-46
2024/03/03 02:59:33;;;;;;;7.18;6.15;;;15.20;71.40;;;;;;4210598;28;20533;-45
2024/03/03 03:02:14;;;;;;;6.90;6.18;;;15.20;71.80;;;;;;4212863;27;20151;-44
2024/03/03 03:04:57;;;;;;;;;;;15.20;71.70;;;;;;4194820;28;20397;-49
2024/03/03 03:07:38;;;;;;;6.97;6.28;;;15.20;71.50;;;;;;4222419;28;19934;-52
2024/03/03 03:10:22;;;;;;;;;;;15.10;71.10;;;;;;4219642;27;20054;-52
2024/03/03 03:13:03;;;;;;;8.35;6.15;;;15.10;71.10;;;;;;4205817;28;20065;-48
2024/03/03 03:15:45;;;;;;;;;;;15.10;72.60;;;;;;4206567;28;20397;-45
2024/03/03 03:18:26;;;;;;;7.80;6.30;;;15.10;71.10;;;;;;4222175;28;19935;-44
2024/03/03 03:21:07;;;;;;;8.13;5.60;;;15.10;71.10;;;;;;4206696;28;20054;-46
2024/03/03 03:23:48;;;;;;;7.85;6.45;;;15.10;70.90;;;;;;4207323;28;20043;-49
2024/03/03 03:26:30;;;;;;;7.65;6.15;;;15.00;70.80;;;;;;4194098;28;20075;-49
2024/03/03 03:29:11;;;;;;;7.90;5.63;;;15.00;71.20;;;;;;4208406;28;20128;-47
2024/03/03 03:31:52;;;;;;;7.22;6.05;;;15.10;73.00;;;;;;4209516;27;20055;-48
2024/03/03 03:34:33;;;;;;;8.32;6.32;;;15.10;72.10;;;;;;4240471;27;20103;-46
2024/03/03 03:37:15;;;;;;;6.65;5.20;;;15.10;71.10;;;;;;4238034;27;20066;-49
2024/03/03 03:39:59;;;;;;;8.93;6.35;;;15.10;71.40;;;;;;4240343;27;20555;-48
2024/03/03 03:42:42;;;;;;;8.95;5.97;;;15.20;71.50;;;;;;4206945;28;20473;-48
2024/03/03 03:45:23;;;;;;;8.70;6.47;;;15.20;71.60;;;;;;4210386;27;20068;-50
2024/03/03 03:48:04;;;;;;;7.90;5.57;;;15.20;71.00;;;;;;4207525;28;20906;-44
2024/03/03 03:50:47;;;;;;;8.93;6.20;;;15.10;69.50;;;;;;4206132;28;20169;-49
2024/03/03 03:53:28;;;;;;;8.05;6.15;;;15.20;71.10;;;;;;4193312;28;20055;-45
2024/03/03 03:56:10;;;;;;;8.38;7.07;;;15.20;69.30;;;;;;4207229;28;20173;-45
2024/03/03 03:58:52;;;;;;;11.15;6.82;;;15.20;69.90;;;;;;4210064;27;20508;-46
2024/03/03 04:01:33;;;;;;;9.10;6.57;;;15.30;70.00;;;;;;4222193;27;20158;-48
2024/03/03 04:04:16;;;;;;;9.45;6.97;;;15.30;71.30;;;;;;4206137;28;20404;-45
2024/03/03 04:06:57;;;;;;;8.85;7.22;;;15.40;72.00;;;;;;4219501;27;20184;-48
2024/03/03 04:09:37;;;;;;;9.70;7.32;;;15.50;71.00;;;;;;4201148;28;20051;-47
2024/03/03 04:12:19;;;;;;;9.07;7.20;;;15.40;69.40;;;;;;4177904;28;20055;-49
2024/03/03 04:15:01;;;;;;;9.13;7.28;;;15.40;69.80;;;;;;4205329;28;20377;-44
2024/03/03 04:17:42;;;;;;;10.43;7.38;;;15.40;70.00;;;;;;4215624;28;20604;-44
2024/03/03 04:20:23;;;;;;;9.48;7.60;;;15.50;71.10;;;;;;4238918;27;20054;-50
2024/03/03 04:23:04;;;;;;;9.50;7.45;;;15.50;70.40;;;;;;4237459;27;20062;-47
2024/03/03 04:25:45;;;;;;;10.52;7.55;;;15.50;71.80;;;;;;4237475;27;20179;-45
2024/03/03 04:28:26;;;;;;;9.65;7.07;;;15.60;72.40;;;;;;4220206;27;20051;-50
2024/03/03 04:31:09;;;;;;;12.32;7.97;;;15.60;72.10;;;;;;4195593;28;20059;-46
2024/03/03 04:33:50;;;;;;;12.27;7.88;;;15.60;71.50;;;;;;4221224;27;20082;-47
2024/03/03 04:36:31;;;;;;;9.57;8.00;;;15.60;72.20;;;;;;4221659;28;20054;-47
2024/03/03 04:39:12;;;;;;;11.25;7.68;;;15.60;71.90;;;;;;4222258;27;20511;-44
2024/03/03 04:41:54;;;;;;;8.43;7.05;;;15.60;72.10;;;;;;4219930;28;20055;-52
2024/03/03 04:44:35;;;;;;;10.30;7.85;;;15.60;71.60;;;;;;4197265;28;20161;-51
2024/03/03 04:47:17;;;;;;;9.73;7.80;;;15.70;72.50;;;;;;4221727;28;20120;-52
2024/03/03 04:49:58;;;;;;;10.82;7.65;;;15.70;72.50;;;;;;4222509;27;20047;-46
2024/03/03 04:52:39;;;;;;;10.43;7.90;;;15.70;72.70;;;;;;4217931;27;20043;-48
2024/03/03 04:55:21;;;;;;;9.57;7.70;;;15.80;72.40;;;;;;4235888;27;20054;-48
2024/03/03 04:58:02;;;;;;;10.73;9.02;;;15.80;72.40;;;;;;4238575;27;20039;-43
2024/03/03 05:00:44;;;;;;;13.63;8.77;;;15.80;72.20;;;;;;4227499;27;20057;-49
2024/03/03 05:03:26;;;;;;;10.75;8.15;;;15.80;72.00;;;;;;4219128;28;20051;-50
2024/03/03 05:06:07;;;;;;;10.25;8.27;;;15.80;71.30;;;;;;4219379;27;20054;-48
2024/03/03 05:08:48;;;;;;;14.57;9.30;;;15.80;72.10;;;;;;4217962;27;20757;-47
2024/03/03 05:11:29;;;;;;;15.80;8.68;;;15.80;72.50;;;;;;4205383;28;20100;-42
2024/03/03 05:14:10;;;;;;;12.90;8.95;;;15.70;72.80;;;;;;4238579;27;20058;-47
2024/03/03 05:16:51;;;;;;;12.52;9.20;;;15.70;73.10;;;;;;4203582;27;20113;-48
2024/03/03 05:19:33;;;;;;;11.60;9.02;;;15.60;72.70;;;;;;4187835;28;20075;-44
2024/03/03 05:22:14;;;;;;;13.90;9.00;;;15.60;72.60;;;;;;4200473;28;20566;-43
2024/03/03 05:24:55;;;;;;;12.75;8.95;;;15.50;73.00;;;;;;4203959;28;20050;-44
2024/03/03 05:27:36;;;;;;;15.13;9.52;;;15.50;73.40;;;;;;4202687;28;20420;-48
2024/03/03 05:30:17;;;;;;;13.30;9.88;;;15.60;73.80;;;;;;4220342;27;20055;-47
2024/03/03 05:32:58;;;;;;;15.15;9.55;;;15.60;73.90;;;;;;4221232;28;20086;-51
2024/03/03 05:35:41;;;;;;;13.60;9.93;;;15.70;74.10;;;;;;4207526;28;20047;-47
2024/03/03 05:38:23;;;;;;;16.60;10.07;;;15.70;74.00;;;;;;4217468;27;20046;-44
2024/03/03 05:41:05;;;;;;;16.00;9.85;;;15.80;74.00;;;;;;4203299;28;20075;-46
2024/03/03 05:43:46;;;;;;;14.85;10.20;;;15.80;74.70;;;;;;4200692;28;20051;-44
2024/03/03 05:46:27;;;;;;;;;;;15.80;73.70;;;;;;4188081;28;20481;-43
2024/03/03 05:49:08;;;;;;;13.45;10.02;;;15.80;73.90;;;;;;4203764;28;20461;-45
2024/03/03 05:51:51;;;;;;;13.10;10.75;;;15.80;73.80;;;;;;4219746;28;20047;-46
2024/03/03 05:54:32;;;;;;;16.05;11.73;;;15.80;73.40;;;;;;4189255;28;20059;-45
2024/03/03 05:57:13;;;;;;;14.68;10.73;;;15.80;73.50;;;;;;4187823;28;20097;-43
2024/03/03 05:59:54;;;;;;;16.60;11.23;;;15.80;73.50;;;;;;4190904;28;20097;-46
2024/03/03 06:02:35;;;;;;;13.35;10.15;;;15.90;73.50;;;;;;4187514;28;20051;-43
2024/03/03 06:05:16;;;;;;;16.75;10.20;;;15.90;73.40;;;;;;4187000;28;20408;-43
2024/03/03 06:07:59;;;;;;;15.75;10.85;;;15.90;73.30;;;;;;4188494;28;20051;-43
2024/03/03 06:10:40;;;;;;;14.93;10.57;;;15.90;73.40;;;;;;4218003;28;20062;-43
2024/03/03 06:13:22;;;;;;;18.02;12.05;;;15.90;72.60;;;;;;4225849;27;20043;-47
2024/03/03 06:16:03;;;;;;;16.63;11.10;;;15.90;73.20;;;;;;4213867;27;20055;-48
2024/03/03 06:18:44;;;;;;;15.15;11.27;;;15.90;73.40;;;;;;4205787;28;20396;-47
2024/03/03 06:21:25;;;;;;;15.63;10.45;;;15.90;73.00;;;;;;4207815;28;20516;-46
2024/03/03 06:24:07;;;;;;;19.23;12.50;;;15.90;73.20;;;;;;4203462;28;20055;-43
2024/03/03 06:26:48;;;;;;;17.13;11.40;;;15.90;73.30;;;;;;4216554;27;20127;-46
2024/03/03 06:29:29;;;;;;;20.10;11.82;;;16.00;73.30;;;;;;4215323;28;20055;-47
2024/03/03 06:32:10;;;;;;;17.42;11.13;;;16.00;73.20;;;;;;4220439;28;20099;-48
2024/03/03 06:34:52;;;;;;;14.85;10.90;;;16.00;73.10;;;;;;4220779;28;20054;-46
2024/03/03 06:37:33;;;;;;;17.58;11.50;;;16.10;73.10;;;;;;4213729;28;20291;-43
2024/03/03 06:40:15;;;;;;;;;;;16.10;73.90;;;;;;4202922;28;20059;-45
2024/03/03 06:42:56;;;;;;;17.10;11.00;;;16.20;73.50;;;;;;4207861;27;19927;-43
2024/03/03 06:45:37;;;;;;;17.10;12.25;;;16.20;73.50;;;;;;4237598;27;20053;-44
2024/03/03 06:48:18;;;;;;;17.25;11.27;;;16.20;73.40;;;;;;4217666;27;20150;-44
2024/03/03 06:50:59;;;;;;;17.58;11.63;;;16.20;73.40;;;;;;4204215;28;20487;-44
2024/03/03 06:53:42;;;;;;;19.60;12.18;;;16.20;73.40;;;;;;4191135;28;20093;-48
2024/03/03 06:56:24;;;;;;;16.58;11.15;;;16.20;73.30;;;;;;4187100;28;20055;-46
2024/03/03 06:59:05;;;;;;;17.02;11.68;;;16.20;73.40;;;;;;4189680;28;20055;-50
2024/03/03 07:01:46;;;;;;;16.98;11.13;;;16.10;73.40;;;;;;4204088;28;20475;-46
2024/03/03 07:04:27;;;;;;;18.02;11.43;;;16.10;73.60;;;;;;4186815;28;20401;-48
2024/03/03 07:07:08;;;;;;;16.45;11.80;;;16.10;73.50;;;;;;4187683;28;20051;-44
2024/03/03 07:09:49;;;;;;;16.15;11.38;;;16.00;74.30;;;;;;4217580;28;20139;-43
2024/03/03 07:12:31;;;;;;;18.08;13.00;;;16.00;73.20;;;;;;4203270;28;20412;-44
2024/03/03 07:15:12;;;;;;;18.65;11.88;;;15.90;73.70;;;;;;4211025;27;20132;-46
2024/03/03 07:17:53;;;;;;;17.38;11.98;;;15.90;74.20;;;;;;4208785;27;20097;-46
2024/03/03 07:20:34;;;;;;;17.77;11.65;;;16.00;74.20;;;;;;4204860;27;20083;-43
2024/03/03 07:23:15;;;;;;;17.38;11.27;;;16.00;74.10;;;;;;4207147;28;20055;-43
2024/03/03 07:25:57;;;;;;;16.52;10.98;;;16.00;74.20;;;;;;4240525;27;20116;-47
2024/03/03 07:28:39;;;;;;;16.73;11.43;;;16.10;74.20;;;;;;4216606;27;20058;-43
2024/03/03 07:31:21;;;;;;;14.65;11.40;;;16.10;74.00;;;;;;4206456;28;20051;-43
2024/03/03 07:34:03;;;;;;;15.75;11.50;;;16.10;74.30;;;;;;4206269;28;20055;-46
2024/03/03 07:36:44;;;;;;;20.05;12.25;;;16.10;72.70;;;;;;4222739;27;20185;-42
2024/03/03 07:39:25;;;;;;;19.10;10.95;;;16.10;73.70;;;;;;4212305;27;20074;-40
2024/03/03 07:42:08;;;;;;;18.05;12.43;;;16.20;75.20;;;;;;4218529;28;20171;-40
2024/03/03 07:44:50;;;;;;;20.00;11.75;;;16.20;75.60;;;;;;4205624;28;20081;-46
2024/03/03 07:47:31;;;;;;;17.38;12.32;;;16.20;74.70;;;;;;4222906;27;20384;-50
2024/03/03 07:50:12;;;;;;;17.30;12.25;;;16.20;74.80;;;;;;4217890;27;20120;-47
2024/03/03 07:52:53;;;;;;;;;;;16.20;75.50;;;;;;4214355;27;20051;-48
2024/03/03 07:55:34;;;;;;;17.23;11.40;;;16.20;75.80;;;;;;4203255;28;19931;-44
2024/03/03 07:58:16;;;;;;;17.48;11.73;;;16.20;76.60;;;;;;4222779;27;20058;-46
2024/03/03 08:01:01;;;;;;;17.40;11.65;;;16.10;76.80;;;;;;4223073;28;20047;-48
2024/03/03 08:03:42;;;;;;;18.38;12.48;;;16.20;76.80;;;;;;4214133;27;20051;-48
2024/03/03 08:06:23;;;;;;;18.17;12.55;;;16.20;77.00;;;;;;4192149;28;20071;-48
2024/03/03 08:09:06;;;;;;;18.25;12.60;;;16.20;77.00;;;;;;4209394;27;20579;-48
2024/03/03 08:11:47;;;;;;;17.67;11.90;;;16.20;78.30;;;;;;4229713;27;20051;-50
2024/03/03 08:14:28;;;;;;;19.45;11.32;;;16.10;77.40;;;;;;4226753;27;20054;-44
2024/03/03 08:17:10;;;;;;;19.02;12.77;;;16.10;77.60;;;;;;4215177;27;20507;-44
2024/03/03 08:19:52;;;;;;;16.45;11.65;;;16.10;77.20;;;;;;4205229;28;20092;-47
2024/03/03 08:22:33;;;;;;;16.42;12.38;;;16.10;77.30;;;;;;4205296;28;20550;-51
2024/03/03 08:25:19;;;;;;;15.65;12.13;;;16.10;77.30;;;;;;4205603;28;20124;-50
2024/03/03 08:28:02;;;;;;;17.77;12.55;;;16.10;77.10;;;;;;4193659;28;20055;-49
2024/03/03 08:30:44;;;;;;;17.88;12.32;;;16.10;76.80;;;;;;4197588;28;20043;-47
2024/03/03 08:33:26;;;;;;;16.75;11.77;;;16.10;76.60;;;;;;4195346;28;20087;-50
2024/03/03 08:36:08;;;;;;;16.67;11.63;;;16.10;76.60;;;;;;4189477;28;20055;-44
2024/03/03 08:38:48;;;;;;;17.83;12.80;;;16.00;76.40;;;;;;4215594;27;20519;-47
2024/03/03 08:41:31;;;;;;;17.77;11.73;;;16.00;76.40;;;;;;4197102;28;20067;-48
2024/03/03 08:44:13;;;;;;;19.55;12.13;;;16.00;76.20;;;;;;4204848;28;20055;-48
2024/03/03 08:46:54;;;;;;;17.33;13.00;;;16.00;76.30;;;;;;4220316;27;20046;-47
2024/03/03 08:49:37;;;;;;;18.02;11.90;;;15.90;76.20;;;;;;4188179;28;20071;-47
2024/03/03 08:52:17;;;;;;;16.17;11.30;;;15.90;74.70;;;;;;4205360;28;20136;-48
2024/03/03 08:54:58;;;;;;;14.75;11.80;;;15.90;74.00;;;;;;4188572;28;20047;-52
2024/03/03 08:57:40;;;;;;;20.38;13.15;;;15.80;74.50;;;;;;4221625;27;20054;-47
2024/03/03 09:00:21;;;;;;;16.35;11.80;;;15.80;74.20;;;;;;4203782;28;20055;-48
2024/03/03 09:03:02;;;;;;;18.30;11.48;;;15.70;73.60;;;;;;4213086;27;20054;-47
2024/03/03 09:05:45;;;;;;;18.60;13.50;;;15.70;72.50;;;;;;4221608;27;20451;-45
2024/03/03 09:08:29;;;;;;;17.10;12.15;;;15.60;72.20;;;;;;4211518;28;20062;-45
2024/03/03 09:11:12;;;;;;;17.40;11.75;;;15.60;73.00;;;;;;4239091;27;20046;-48
2024/03/03 09:13:53;;;;;;;16.95;12.63;;;15.50;73.00;;;;;;4219193;27;20097;-48
2024/03/03 09:16:34;;;;;;;16.27;10.82;;;15.50;73.70;;;;;;4220664;27;20066;-45
2024/03/03 09:19:15;;;;;;;19.95;11.57;;;15.50;74.60;;;;;;4199787;28;20052;-44
2024/03/03 09:21:57;;;;;;;21.30;13.05;;;15.50;75.10;;;;;;4202437;28;20047;-44
2024/03/03 09:24:40;;;;;;;19.08;11.88;;;15.40;75.20;;;;;;4188202;28;20577;-47
2024/03/03 09:27:24;;;;;;;18.60;12.35;;;15.50;75.60;;;;;;4194792;28;20357;-51
2024/03/03 09:30:07;;;;;;;17.63;12.15;;;15.50;76.60;;;;;;4188610;28;20085;-51
2024/03/03 09:32:52;;;;;;;19.13;12.43;;;15.50;76.20;;;;;;4216010;28;20051;-47
2024/03/03 09:35:33;;;;;;;18.67;12.45;;;15.60;76.00;;;;;;4204858;28;20185;-47
2024/03/03 09:38:16;;;;;;;16.67;12.50;;;15.60;75.70;;;;;;4194380;28;20196;-51
2024/03/03 09:40:56;;;;;;;18.85;12.25;;;15.60;75.20;;;;;;4204648;28;20063;-50
2024/03/03 09:43:39;;;;;;;22.75;11.80;;;15.60;75.00;;;;;;4204914;28;20126;-47
2024/03/03 09:46:22;;;;;;;20.63;12.15;;;15.60;74.70;;;;;;4204879;28;20059;-50
2024/03/03 09:49:05;;;;;;;17.65;12.27;;;15.60;75.00;;;;;;4204142;28;20047;-51
2024/03/03 09:51:46;;;;;;;17.33;11.82;;;15.60;74.70;;;;;;4213562;28;20144;-48
2024/03/03 09:54:31;;;;;;;19.60;13.13;;;15.60;75.20;;;;;;4230322;27;20096;-49
2024/03/03 09:57:13;;;;;;;18.05;12.80;;;15.60;75.20;;;;;;4195445;28;20396;-48
2024/03/03 09:59:54;;;;;;;14.73;11.77;;;15.60;75.20;;;;;;4203986;28;20058;-45
2024/03/03 10:02:39;;;;;;;17.42;11.77;;;15.60;74.90;;;;;;4205297;28;20059;-45
2024/03/03 10:05:20;;;;;;;17.40;10.70;;;15.60;74.90;;;;;;4204355;28;20137;-48
2024/03/03 10:08:02;;;;;;;;;;;15.60;75.00;;;;;;4234046;27;20050;-47
2024/03/03 10:10:48;;;;;;;19.90;13.70;;;15.60;73.90;;;;;;4232055;27;19930;-52
2024/03/03 10:13:32;;;;;;;22.75;14.07;;;15.60;73.10;;;;;;4228125;27;20066;-47
2024/03/03 10:16:15;;;;;;;17.02;12.05;;;15.60;73.80;;;;;;4205022;27;20070;-45
2024/03/03 10:19:03;;;;;;;17.63;13.00;;;15.60;74.50;;;;;;4194476;28;20089;-47
2024/03/03 10:21:44;;;;;;;21.95;13.80;;;15.50;74.50;;;;;;4203602;28;20189;-47
2024/03/03 10:24:26;;;;;;;22.95;14.88;;;15.50;75.70;;;;;;4219431;28;20051;-45
2024/03/03 10:27:16;;;;;;;22.88;14.90;;;15.60;74.70;;;;;;4225817;27;20047;-48
2024/03/03 10:30:04;;;;;;;23.00;14.23;;;15.50;73.90;;;;;;4197648;28;20055;-44
2024/03/03 10:32:46;;;;;;;21.00;14.65;;;15.50;73.70;;;;;;4199108;28;20067;-46
2024/03/03 10:35:44;;;;;;;21.10;14.80;;;15.50;74.10;;;;;;4162872;28;20051;-44
2024/03/03 10:38:40;;;;;;;23.60;13.82;;;15.50;74.00;;;;;;4121855;28;20063;-50
2024/03/03 10:41:24;;;;;;;21.33;13.18;;;15.50;74.00;;;;;;4183538;28;20062;-45
2024/03/03 10:44:08;;;;;;;21.47;14.93;;;15.50;74.30;;;;;;4204490;27;20071;-46
2024/03/03 10:46:49;;;;;;;22.58;16.45;;;15.50;74.20;;;;;;4191496;28;20420;-48
2024/03/03 10:49:30;;;;;;;21.75;14.35;;;15.50;73.50;;;;;;4190363;28;20051;-48
2024/03/03 10:52:12;;;;;;;23.77;15.05;;;15.50;72.90;;;;;;4204759;28;20051;-47
2024/03/03 10:54:54;;;;;;;19.50;14.55;;;15.50;71.90;;;;;;4189037;28;20058;-49
2024/03/03 10:57:36;;;;;;;23.05;14.45;;;15.50;71.90;;;;;;4217443;28;20070;-45
2024/03/03 11:00:22;;;;;;;18.52;14.20;;;15.50;72.80;;;;;;4220171;27;20051;-44
2024/03/03 11:03:05;;;;;;;20.42;13.35;;;15.50;73.30;;;;;;4192924;28;20047;-50
2024/03/03 11:05:50;;;;;;;20.63;14.25;;;15.50;73.90;;;;;;4222261;28;20280;-47
2024/03/03 11:08:32;;;;;;;23.27;14.85;;;15.50;73.90;;;;;;4196715;28;20059;-48
2024/03/03 11:11:14;;;;;;;19.92;14.40;;;15.50;74.50;;;;;;4201679;28;20047;-45
2024/03/03 11:13:58;;;;;;;21.20;13.63;;;15.50;74.10;;;;;;4207865;28;20046;-50
2024/03/03 11:16:49;;;;;;;21.15;15.38;;;15.50;74.00;;;;;;4206135;28;20054;-46
2024/03/03 11:19:39;;;;;;;20.48;14.75;;;15.50;74.20;;;;;;4222284;27;20062;-46
2024/03/03 11:22:24;;;;;;;21.27;14.93;;;15.50;74.70;;;;;;4205813;28;20491;-50
2024/03/03 11:25:07;;;;;;;19.92;12.75;;;15.50;74.40;;;;;;4190983;28;20090;-48
2024/03/03 11:27:56;;;;;;;23.33;15.77;;;15.50;74.70;;;;;;4203510;28;20051;-46
2024/03/03 11:30:37;;;;;;;18.80;12.80;;;15.50;74.30;;;;;;4222983;27;20511;-48
2024/03/03 11:33:20;;;;;;;20.83;13.60;;;15.60;74.50;;;;;;4214161;27;20046;-48
2024/03/03 11:36:02;;;;;;;28.05;14.63;;;15.60;74.60;;;;;;4230417;27;20116;-47
2024/03/03 11:38:43;;;;;;;;;;;15.60;74.30;;;;;;4190013;28;20059;-46
2024/03/03 11:41:24;;;;;;;19.57;14.70;;;15.60;74.70;;;;;;4206331;28;19926;-45
2024/03/03 11:44:05;;;;;;;20.27;13.88;;;15.60;74.20;;;;;;4203159;28;20311;-47
2024/03/03 11:46:48;;;;;;;22.02;14.52;;;15.60;74.00;;;;;;4206763;28;20124;-49
2024/03/03 11:49:31;;;;;;;22.08;15.48;;;15.60;74.00;;;;;;4206236;28;20100;-49
2024/03/03 11:52:32;;;;;;;23.00;14.30;;;15.60;74.10;;;;;;4188210;28;20059;-50
2024/03/03 11:55:16;;;;;;;21.67;14.55;;;15.60;74.40;;;;;;4188377;28;20701;-49
2024/03/03 11:58:01;;;;;;;20.73;13.93;;;15.60;74.20;;;;;;4205831;27;20049;-50
2024/03/03 12:00:42;;;;;;;23.02;16.58;;;15.60;74.20;;;;;;4221216;27;20100;-46
2024/03/03 12:03:23;;;;;;;20.40;15.02;;;15.60;74.30;;;;;;4220172;27;20050;-45
2024/03/03 12:06:07;;;;;;;21.42;15.20;;;15.70;74.00;;;;;;4221971;28;20076;-45
2024/03/03 12:08:54;;;;;;;24.27;14.13;;;15.70;74.30;;;;;;4209746;28;20499;-44
2024/03/03 12:11:35;;;;;;;19.58;13.95;;;15.70;74.10;;;;;;4208414;27;20082;-48
2024/03/03 12:14:16;;;;;;;19.70;13.60;;;15.70;74.00;;;;;;4238074;27;20042;-48
2024/03/03 12:16:57;;;;;;;19.73;12.98;;;15.70;74.20;;;;;;4226483;27;20058;-49
2024/03/03 12:19:38;;;;;;;20.88;15.55;;;15.70;74.30;;;;;;4205145;27;20081;-49
2024/03/03 12:22:22;;;;;;;27.40;16.20;;;15.70;74.20;;;;;;4204809;28;20067;-48
2024/03/03 12:25:03;;;;;;;19.40;13.35;;;15.70;73.60;;;;;;4219188;27;20066;-46
2024/03/03 12:27:50;;;;;;;23.13;14.55;;;15.70;73.50;;;;;;4203966;28;20120;-51
2024/03/03 12:30:35;;;;;;;21.52;14.60;;;15.70;73.80;;;;;;4204308;28;20138;-47
2024/03/03 12:33:18;;;;;;;26.48;15.40;;;15.70;74.20;;;;;;4205337;28;20082;-50
2024/03/03 12:36:04;;;;;;;25.20;15.77;;;15.70;74.70;;;;;;4222302;27;20124;-44
2024/03/03 12:38:46;;;;;;;26.00;17.02;;;15.70;75.00;;;;;;4204172;28;20047;-47
2024/03/03 12:41:30;;;;;;;22.05;16.17;;;15.70;75.20;;;;;;4192739;28;20059;-47
2024/03/03 12:44:12;;;;;;;24.13;16.50;;;15.70;75.30;;;;;;4191583;28;20048;-48
2024/03/03 12:46:53;;;;;;;20.23;14.30;;;15.80;75.40;;;;;;4193218;28;20137;-49
2024/03/03 12:49:33;;;;;;;22.40;15.00;;;15.80;75.50;;;;;;4199317;28;20064;-48
2024/03/03 12:52:16;;;;;;;19.80;14.02;;;15.80;75.80;;;;;;4210264;28;20051;-50
2024/03/03 12:54:59;;;;;;;17.40;12.13;;;15.80;76.00;;;;;;4212070;27;20074;-42
2024/03/03 12:57:43;;;;;;;17.30;12.20;;;15.80;75.60;;;;;;4207850;28;20661;-45
2024/03/03 13:00:24;;;;;;;19.17;12.88;;;15.90;76.10;;;;;;4227543;27;20515;-47
2024/03/03 13:03:05;;;;;;;17.40;11.68;;;15.90;74.10;;;;;;4203252;28;20412;-45
2024/03/03 13:05:48;;;;;;;16.65;11.38;;;16.00;74.20;;;;;;4201387;27;20098;-47
2024/03/03 13:08:29;;;;;;;16.30;11.95;;;16.00;75.00;;;;;;4196710;28;20043;-44
2024/03/03 13:11:12;;;;;;;17.15;11.85;;;16.10;75.00;;;;;;4205292;28;20454;-45
2024/03/03 13:13:54;;;;;;;17.10;10.68;;;16.10;75.10;;;;;;4196622;28;20109;-45
2024/03/03 13:16:35;;;;;;;15.77;9.98;;;16.20;74.70;;;;;;4204527;28;20058;-46
2024/03/03 13:19:17;;;;;;;13.65;10.27;;;16.30;75.20;;;;;;4204424;28;20412;-43
2024/03/03 13:22:03;;;;;;;15.60;12.10;;;16.30;74.10;;;;;;4211459;28;20120;-43
2024/03/03 13:24:55;;;;;;;18.10;11.77;;;16.40;72.80;;;;;;4198649;28;20130;-46
2024/03/03 13:27:37;;;;;;;13.55;10.43;;;16.50;73.10;;;;;;4216218;27;20438;-45
2024/03/03 13:30:20;;;;;;;15.95;12.35;;;16.50;74.00;;;;;;4228094;27;20046;-48
2024/03/03 13:33:05;;;;;;;16.55;12.57;;;16.60;72.20;;;;;;4195699;28;20094;-47
2024/03/03 13:35:45;;;;;;;19.30;12.85;;;16.60;71.70;;;;;;4204829;28;20485;-49
2024/03/03 13:38:27;;;;;;;20.20;12.65;;;16.60;71.10;;;;;;4212433;27;20071;-46
2024/03/03 13:41:08;;;;;;;18.13;12.05;;;16.60;71.70;;;;;;4225926;27;20055;-47
2024/03/03 13:43:50;;;;;;;18.98;13.70;;;16.50;72.00;;;;;;4204946;28;20051;-48
2024/03/03 13:46:31;;;;;;;16.98;12.32;;;16.50;71.80;;;;;;4217379;28;20744;-46
2024/03/03 13:49:13;;;;;;;16.88;13.00;;;16.50;71.80;;;;;;4204744;28;20055;-46
2024/03/03 13:51:55;;;;;;;16.38;13.00;;;16.50;71.10;;;;;;4209459;27;20192;-46